createdAt,value
2018-02-25T00:02:14.025Z,2.90
2018-02-25T00:04:40.628Z,2.80
2018-02-25T00:07:07.220Z,3.00
2018-02-25T00:09:33.820Z,2.73
2018-02-25T00:12:00.408Z,2.37
2018-02-25T00:14:27.004Z,3.43
2018-02-25T00:16:53.599Z,3.30
2018-02-25T00:19:20.188Z,3.00
2018-02-25T00:21:46.788Z,2.83
2018-02-25T00:24:13.372Z,2.80
2018-02-25T00:26:39.976Z,2.87
2018-02-25T00:29:06.572Z,2.60
2018-02-25T00:31:33.179Z,3.27
2018-02-25T00:33:59.768Z,3.30
2018-02-25T00:36:26.359Z,2.80
2018-02-25T00:38:52.967Z,3.50
2018-02-25T00:41:19.558Z,3.10
2018-02-25T00:43:46.159Z,3.43
2018-02-25T00:46:12.744Z,2.80
2018-02-25T00:48:39.348Z,3.10
2018-02-25T00:51:05.939Z,3.10
2018-02-25T00:53:32.536Z,3.10
2018-02-25T00:55:59.156Z,3.10
2018-02-25T00:58:25.740Z,3.37
2018-02-25T01:00:52.345Z,3.23
2018-02-25T01:03:18.939Z,3.40
2018-02-25T01:05:45.561Z,3.27
2018-02-25T01:08:12.156Z,3.13
2018-02-25T01:10:38.748Z,3.80
2018-02-25T01:13:05.351Z,3.20
2018-02-25T01:15:32.052Z,3.60
2018-02-25T01:17:58.645Z,3.57
2018-02-25T01:20:25.264Z,3.53
2018-02-25T01:22:51.869Z,3.33
2018-02-25T01:25:18.468Z,3.30
2018-02-25T01:27:45.061Z,3.40
2018-02-25T01:30:11.674Z,3.90
2018-02-25T01:32:38.289Z,3.70
2018-02-25T01:35:04.881Z,3.40
2018-02-25T01:37:31.482Z,4.00
2018-02-25T01:39:58.077Z,3.57
2018-02-25T01:42:24.681Z,3.80
2018-02-25T01:44:51.276Z,4.00
2018-02-25T01:47:17.872Z,3.53
2018-02-25T01:49:44.468Z,3.47
2018-02-25T01:52:11.060Z,3.80
2018-02-25T01:54:37.672Z,3.63
2018-02-25T01:57:04.268Z,3.83
2018-02-25T01:59:30.892Z,3.50
2018-02-25T02:01:57.479Z,4.00
2018-02-25T02:04:24.076Z,3.60
2018-02-25T02:06:50.755Z,3.90
2018-02-25T02:09:17.349Z,3.17
2018-02-25T02:11:43.948Z,3.87
2018-02-25T02:14:10.544Z,3.77
2018-02-25T02:16:37.148Z,3.87
2018-02-25T02:19:03.800Z,3.70
2018-02-25T02:21:30.379Z,3.57
2018-02-25T02:23:56.980Z,3.80
2018-02-25T02:26:23.581Z,3.60
2018-02-25T02:28:51.113Z,3.50
2018-02-25T02:31:17.703Z,3.93
2018-02-25T02:33:44.316Z,3.93
2018-02-25T02:36:10.912Z,3.93
2018-02-25T02:38:37.500Z,4.60
2018-02-25T02:41:04.097Z,3.87
2018-02-25T02:43:30.685Z,3.77
2018-02-25T02:45:57.284Z,4.50
2018-02-25T02:48:23.880Z,4.10
2018-02-25T02:50:50.479Z,3.60
2018-02-25T02:53:17.161Z,3.67
2018-02-25T02:55:43.747Z,3.80
2018-02-25T02:58:10.345Z,4.13
2018-02-25T03:00:36.939Z,3.80
2018-02-25T03:03:03.553Z,4.27
2018-02-25T03:05:30.149Z,3.97
2018-02-25T03:07:56.743Z,3.63
2018-02-25T03:10:23.399Z,4.10
2018-02-25T03:12:50.055Z,4.00
2018-02-25T03:15:16.655Z,3.50
2018-02-25T03:17:43.248Z,3.73
2018-02-25T03:20:09.853Z,4.10
2018-02-25T03:22:36.447Z,3.80
2018-02-25T03:25:03.044Z,3.90
2018-02-25T03:27:29.632Z,4.37
2018-02-25T03:29:56.224Z,3.87
2018-02-25T03:32:22.824Z,4.00
2018-02-25T03:34:49.412Z,3.60
2018-02-25T03:37:16.017Z,3.90
2018-02-25T03:39:42.605Z,3.70
2018-02-25T03:42:09.205Z,3.57
2018-02-25T03:44:35.799Z,4.20
2018-02-25T03:47:02.399Z,4.00
2018-02-25T03:49:28.999Z,4.37
2018-02-25T03:51:55.587Z,4.17
2018-02-25T03:54:22.189Z,3.67
2018-02-25T03:56:48.784Z,3.90
2018-02-25T03:59:15.398Z,4.10
2018-02-25T04:01:42.004Z,3.93
2018-02-25T04:04:08.587Z,4.33
2018-02-25T04:06:35.196Z,4.00
2018-02-25T04:09:01.799Z,4.03
2018-02-25T04:11:28.388Z,4.40
2018-02-25T04:13:54.989Z,4.33
2018-02-25T04:16:21.580Z,4.60
2018-02-25T04:18:48.180Z,4.43
2018-02-25T04:21:14.804Z,4.30
2018-02-25T04:23:41.397Z,4.10
2018-02-25T04:26:07.987Z,4.37
2018-02-25T04:28:34.588Z,4.43
2018-02-25T04:31:01.188Z,4.57
2018-02-25T04:33:27.808Z,4.90
2018-02-25T04:35:54.432Z,4.40
2018-02-25T04:38:21.020Z,4.50
2018-02-25T04:40:47.628Z,4.77
2018-02-25T04:43:14.222Z,4.80
2018-02-25T04:45:40.841Z,4.57
2018-02-25T04:48:07.448Z,4.73
2018-02-25T04:50:34.039Z,4.83
2018-02-25T04:53:00.636Z,4.40
2018-02-25T04:55:27.268Z,4.27
2018-02-25T04:57:53.887Z,4.80
2018-02-25T05:00:20.512Z,4.80
2018-02-25T05:02:47.116Z,4.40
2018-02-25T05:05:13.703Z,5.10
2018-02-25T05:07:40.296Z,4.83
2018-02-25T05:10:06.888Z,4.77
2018-02-25T05:12:33.523Z,4.30
2018-02-25T05:15:00.125Z,4.90
2018-02-25T05:17:26.819Z,4.73
2018-02-25T05:19:53.436Z,4.77
2018-02-25T05:22:20.040Z,4.70
2018-02-25T05:24:46.628Z,4.83
2018-02-25T05:27:13.232Z,4.50
2018-02-25T05:29:39.848Z,4.50
2018-02-25T05:32:06.449Z,5.13
2018-02-25T05:34:33.053Z,4.83
2018-02-25T05:36:59.642Z,4.60
2018-02-25T05:39:26.250Z,4.60
2018-02-25T05:41:52.841Z,5.20
2018-02-25T05:44:19.441Z,5.47
2018-02-25T05:46:46.044Z,5.00
2018-02-25T05:49:12.640Z,5.33
2018-02-25T05:51:39.231Z,4.93
2018-02-25T05:54:05.829Z,5.00
2018-02-25T05:56:32.441Z,5.40
2018-02-25T05:58:59.032Z,5.40
2018-02-25T06:01:25.629Z,5.40
2018-02-25T06:03:52.229Z,7.90
2018-02-25T06:06:20.048Z,12.77
2018-02-25T06:08:46.716Z,10.20
2018-02-25T06:11:13.315Z,5.40
2018-02-25T06:13:39.916Z,4.47
2018-02-25T06:16:06.511Z,4.47
2018-02-25T06:18:33.104Z,4.60
2018-02-25T06:20:59.702Z,5.10
2018-02-25T06:23:26.288Z,4.97
2018-02-25T06:25:52.900Z,5.03
2018-02-25T06:28:19.484Z,4.57
2018-02-25T06:30:46.420Z,4.77
2018-02-25T06:33:13.007Z,4.60
2018-02-25T06:35:39.593Z,4.50
2018-02-25T06:38:06.185Z,4.73
2018-02-25T06:40:32.777Z,4.97
2018-02-25T06:42:59.380Z,4.50
2018-02-25T06:45:25.991Z,4.17
2018-02-25T06:47:52.603Z,5.00
2018-02-25T06:50:19.184Z,4.90
2018-02-25T06:52:45.780Z,4.57
2018-02-25T06:55:12.386Z,5.10
2018-02-25T06:57:38.984Z,4.60
2018-02-25T07:00:05.576Z,4.87
2018-02-25T07:02:32.175Z,4.50
2018-02-25T07:04:58.832Z,4.47
2018-02-25T07:07:25.426Z,4.60
2018-02-25T07:09:52.016Z,4.80
2018-02-25T07:12:18.612Z,4.10
2018-02-25T07:14:45.205Z,4.70
2018-02-25T07:17:11.839Z,4.40
2018-02-25T07:19:38.452Z,4.43
2018-02-25T07:22:05.114Z,4.07
2018-02-25T07:24:31.664Z,4.47
2018-02-25T07:26:58.253Z,5.17
2018-02-25T07:29:24.852Z,4.27
2018-02-25T07:31:51.444Z,3.90
2018-02-25T07:34:18.035Z,4.27
2018-02-25T07:36:44.644Z,4.40
2018-02-25T07:39:11.240Z,4.70
2018-02-25T07:41:37.862Z,4.13
2018-02-25T07:44:04.460Z,4.73
2018-02-25T07:46:31.045Z,4.33
2018-02-25T07:48:57.647Z,4.97
2018-02-25T07:51:24.241Z,4.97
2018-02-25T07:53:51.100Z,5.10
2018-02-25T07:56:17.705Z,4.80
2018-02-25T07:58:44.307Z,5.00
2018-02-25T08:01:10.926Z,4.93
2018-02-25T08:03:37.503Z,5.17
2018-02-25T08:06:04.120Z,4.60
2018-02-25T08:08:30.725Z,4.95
2018-02-25T08:10:57.344Z,4.97
2018-02-25T08:13:23.973Z,4.93
2018-02-25T08:15:50.615Z,3.80
2018-02-25T08:18:17.254Z,5.20
2018-02-25T08:20:43.844Z,4.95
2018-02-25T08:23:10.436Z,4.67
2018-02-25T08:25:37.036Z,4.60
2018-02-25T08:28:03.636Z,5.30
2018-02-25T08:30:30.244Z,4.63
2018-02-25T08:32:56.852Z,4.70
2018-02-25T08:35:23.460Z,5.57
2018-02-25T08:37:50.083Z,4.00
2018-02-25T08:40:16.643Z,4.50
2018-02-25T08:42:43.248Z,5.20
2018-02-25T08:45:09.844Z,5.43
2018-02-25T08:47:36.441Z,4.40
2018-02-25T08:50:03.071Z,4.30
2018-02-25T08:52:29.684Z,4.60
2018-02-25T08:54:56.288Z,5.10
2018-02-25T08:57:22.900Z,4.53
2018-02-25T08:59:49.492Z,5.20
2018-02-25T09:02:16.092Z,4.77
2018-02-25T09:04:42.692Z,4.57
2018-02-25T09:07:09.316Z,4.80
2018-02-25T09:09:35.928Z,4.33
2018-02-25T09:12:04.857Z,4.70
2018-02-25T09:14:31.439Z,4.83
2018-02-25T09:16:58.048Z,4.87
2018-02-25T09:19:24.654Z,4.70
2018-02-25T09:21:51.280Z,4.93
2018-02-25T09:24:17.867Z,5.00
2018-02-25T09:26:44.472Z,4.60
2018-02-25T09:29:11.079Z,4.50
2018-02-25T09:31:37.685Z,4.13
2018-02-25T09:34:04.276Z,4.10
2018-02-25T09:36:31.132Z,4.77
2018-02-25T09:38:57.720Z,4.50
2018-02-25T09:41:24.353Z,4.63
2018-02-25T09:43:50.913Z,4.10
2018-02-25T09:46:17.508Z,4.37
2018-02-25T09:48:44.127Z,4.50
2018-02-25T09:51:10.724Z,4.30
2018-02-25T09:53:37.324Z,3.40
2018-02-25T09:56:03.919Z,4.23
2018-02-25T09:58:30.516Z,3.77
2018-02-25T10:00:57.138Z,3.97
2018-02-25T10:03:23.748Z,3.90
2018-02-25T10:05:50.390Z,3.83
2018-02-25T10:08:16.981Z,3.77
2018-02-25T10:10:43.576Z,3.67
2018-02-25T10:13:10.168Z,4.07
2018-02-25T10:15:36.761Z,3.50
2018-02-25T10:18:03.356Z,3.60
2018-02-25T10:20:29.965Z,3.73
2018-02-25T10:22:56.835Z,3.60
2018-02-25T10:25:23.770Z,3.17
2018-02-25T10:27:50.370Z,3.30
2018-02-25T10:30:16.964Z,3.37
2018-02-25T10:32:43.565Z,3.80
2018-02-25T10:35:10.164Z,3.37
2018-02-25T10:37:36.763Z,3.10
2018-02-25T10:40:03.358Z,3.30
2018-02-25T10:42:29.960Z,3.37
2018-02-25T10:44:56.564Z,3.13
2018-02-25T10:47:23.404Z,2.70
2018-02-25T10:49:49.998Z,3.13
2018-02-25T10:52:16.600Z,3.00
2018-02-25T10:54:43.209Z,4.90
2018-02-25T10:57:09.854Z,6.80
2018-02-25T10:59:36.448Z,3.13
2018-02-25T11:02:03.043Z,3.53
2018-02-25T11:04:29.638Z,3.43
2018-02-25T11:06:56.254Z,2.83
2018-02-25T11:09:22.845Z,2.90
2018-02-25T11:11:49.440Z,2.83
2018-02-25T11:14:16.036Z,2.57
2018-02-25T11:16:42.636Z,4.97
2018-02-25T11:19:09.229Z,2.70
2018-02-25T11:21:36.057Z,8.33
2018-02-25T11:24:02.649Z,2.70
2018-02-25T11:26:29.241Z,2.93
2018-02-25T11:28:56.167Z,5.20
2018-02-25T11:31:22.901Z,3.63
2018-02-25T11:33:49.394Z,2.60
2018-02-25T11:36:15.996Z,2.30
2018-02-25T11:38:43.224Z,3.00
2018-02-25T11:41:09.828Z,5.80
2018-02-25T11:43:36.432Z,12.73
2018-02-25T11:46:03.024Z,2.50
2018-02-25T11:48:29.636Z,2.57
2018-02-25T11:50:56.234Z,2.40
2018-02-25T11:53:22.837Z,3.23
2018-02-25T11:55:49.431Z,14.77
2018-02-25T11:58:16.036Z,6.47
2018-02-25T12:00:42.631Z,2.73
2018-02-25T12:03:09.236Z,2.50
2018-02-25T12:05:35.863Z,2.30
2018-02-25T12:08:02.451Z,2.50
2018-02-25T12:10:29.033Z,2.40
2018-02-25T12:12:55.635Z,2.17
2018-02-25T12:15:22.237Z,2.50
2018-02-25T12:17:48.839Z,2.50
2018-02-25T12:20:15.428Z,3.47
2018-02-25T12:22:42.027Z,2.17
2018-02-25T12:25:08.652Z,3.97
2018-02-25T12:27:35.236Z,2.60
2018-02-25T12:30:02.204Z,2.30
2018-02-25T12:32:29.053Z,2.20
2018-02-25T12:34:56.136Z,2.30
2018-02-25T12:37:23.031Z,2.17
2018-02-25T12:39:49.641Z,1.97
2018-02-25T12:42:16.244Z,2.43
2018-02-25T12:44:42.836Z,3.40
2018-02-25T12:47:09.432Z,2.27
2018-02-25T12:49:36.028Z,1.90
2018-02-25T12:52:02.619Z,1.90
2018-02-25T12:54:29.215Z,2.07
2018-02-25T12:56:55.805Z,2.03
2018-02-25T12:59:22.400Z,2.17
2018-02-25T13:01:48.997Z,2.57
2018-02-25T13:04:15.596Z,2.13
2018-02-25T13:06:45.636Z,2.30
2018-02-25T13:09:12.228Z,1.90
2018-02-25T13:11:38.812Z,2.40
2018-02-25T13:14:05.420Z,2.07
2018-02-25T13:16:32.016Z,2.00
2018-02-25T13:18:58.619Z,2.57
2018-02-25T13:21:25.224Z,2.20
2018-02-25T13:23:51.817Z,2.57
2018-02-25T13:26:18.420Z,2.60
2018-02-25T13:28:45.290Z,3.00
2018-02-25T13:31:11.884Z,2.30
2018-02-25T13:33:38.468Z,2.70
2018-02-25T13:36:05.124Z,2.03
2018-02-25T13:38:31.680Z,2.20
2018-02-25T13:40:58.543Z,2.80
2018-02-25T13:43:25.140Z,2.90
2018-02-25T13:45:51.734Z,2.23
2018-02-25T13:48:18.341Z,2.40
2018-02-25T13:50:44.920Z,2.17
2018-02-25T13:53:11.532Z,2.23
2018-02-25T13:55:38.125Z,2.50
2018-02-25T13:58:04.750Z,2.43
2018-02-25T14:00:31.334Z,2.23
2018-02-25T14:02:57.924Z,2.37
2018-02-25T14:05:24.532Z,2.50
2018-02-25T14:07:51.127Z,2.47
2018-02-25T14:10:17.720Z,2.30
2018-02-25T14:12:44.315Z,2.50
2018-02-25T14:15:10.924Z,2.33
2018-02-25T14:17:37.792Z,2.23
2018-02-25T14:20:04.377Z,2.47
2018-02-25T14:22:30.973Z,2.20
2018-02-25T14:24:57.572Z,2.23
2018-02-25T14:27:24.175Z,2.40
2018-02-25T14:29:50.768Z,2.27
2018-02-25T14:32:17.364Z,2.57
2018-02-25T14:34:43.999Z,2.47
2018-02-25T14:37:10.580Z,2.30
2018-02-25T14:39:37.168Z,2.80
2018-02-25T14:42:03.768Z,1.80
2018-02-25T14:44:30.356Z,2.80
2018-02-25T14:46:56.963Z,2.40
2018-02-25T14:49:23.555Z,1.90
2018-02-25T14:51:50.153Z,1.90
2018-02-25T14:54:16.753Z,2.00
2018-02-25T14:56:43.344Z,2.10
2018-02-25T14:59:09.952Z,2.07
2018-02-25T15:01:36.546Z,2.20
2018-02-25T15:04:03.136Z,2.27
2018-02-25T15:06:29.737Z,2.40
2018-02-25T15:08:56.324Z,2.33
2018-02-25T15:11:22.972Z,1.90
2018-02-25T15:13:49.564Z,2.40
2018-02-25T15:16:17.114Z,2.27
2018-02-25T15:18:43.715Z,2.10
2018-02-25T15:21:10.315Z,2.00
2018-02-25T15:23:36.912Z,2.40
2018-02-25T15:26:03.499Z,2.53
2018-02-25T15:28:30.092Z,2.10
2018-02-25T15:30:56.740Z,2.20
2018-02-25T15:33:23.337Z,2.07
2018-02-25T15:35:49.963Z,2.30
2018-02-25T15:38:16.594Z,2.30
2018-02-25T15:40:43.167Z,2.60
2018-02-25T15:43:09.736Z,2.50
2018-02-25T15:45:36.324Z,2.43
2018-02-25T15:48:02.928Z,2.00
2018-02-25T15:50:29.524Z,2.00
2018-02-25T15:52:56.111Z,1.80
2018-02-25T15:55:22.711Z,2.40
2018-02-25T15:57:49.342Z,2.10
2018-02-25T16:00:15.935Z,2.00
2018-02-25T16:02:42.529Z,2.37
2018-02-25T16:05:09.120Z,2.20
2018-02-25T16:07:35.730Z,2.10
2018-02-25T16:10:02.319Z,2.23
2018-02-25T16:12:28.928Z,2.37
2018-02-25T16:14:55.511Z,2.20
2018-02-25T16:17:22.111Z,2.10
2018-02-25T16:19:48.710Z,2.20
2018-02-25T16:22:15.296Z,2.27
2018-02-25T16:24:41.940Z,2.50
2018-02-25T16:27:08.544Z,2.40
2018-02-25T16:29:35.465Z,2.13
2018-02-25T16:32:02.060Z,2.40
2018-02-25T16:34:28.648Z,2.30
2018-02-25T16:36:55.252Z,2.33
2018-02-25T16:39:21.848Z,2.50
2018-02-25T16:41:48.464Z,2.33
2018-02-25T16:44:15.072Z,2.10
2018-02-25T16:46:43.600Z,2.50
2018-02-25T16:49:10.208Z,2.43
2018-02-25T16:51:36.800Z,2.50
2018-02-25T16:54:03.404Z,2.93
2018-02-25T16:56:30.003Z,2.73
2018-02-25T16:58:56.604Z,2.50
2018-02-25T17:01:24.152Z,2.30
2018-02-25T17:03:50.780Z,2.63
2018-02-25T17:06:17.371Z,2.37
2018-02-25T17:08:43.972Z,2.63
2018-02-25T17:11:10.572Z,2.43
2018-02-25T17:13:37.180Z,2.77
2018-02-25T17:16:03.777Z,2.47
2018-02-25T17:18:30.363Z,3.07
2018-02-25T17:20:56.972Z,3.50
2018-02-25T17:23:23.604Z,3.33
2018-02-25T17:25:50.254Z,2.67
2018-02-25T17:28:16.808Z,3.93
2018-02-25T17:30:43.832Z,2.60
2018-02-25T17:33:10.421Z,2.53
2018-02-25T17:35:37.071Z,3.87
2018-02-25T17:38:03.673Z,2.90
2018-02-25T17:40:30.259Z,2.10
2018-02-25T17:42:56.856Z,2.37
2018-02-25T17:45:23.448Z,4.23
2018-02-25T17:47:50.044Z,3.90
2018-02-25T17:50:16.648Z,2.90
2018-02-25T17:52:43.244Z,2.70
2018-02-25T17:55:09.838Z,3.40
2018-02-25T17:57:36.432Z,2.40
2018-02-25T18:00:03.024Z,2.73
2018-02-25T18:02:29.648Z,2.40
2018-02-25T18:04:56.243Z,2.63
2018-02-25T18:07:22.840Z,2.17
2018-02-25T18:09:49.436Z,2.57
2018-02-25T18:12:16.036Z,3.73
2018-02-25T18:14:42.640Z,2.70
2018-02-25T18:17:09.224Z,2.87
2018-02-25T18:19:35.823Z,3.13
2018-02-25T18:22:02.413Z,2.47
2018-02-25T18:24:29.003Z,3.70
2018-02-25T18:26:55.622Z,2.37
2018-02-25T18:29:22.215Z,2.80
2018-02-25T18:31:48.808Z,3.73
2018-02-25T18:34:15.412Z,2.47
2018-02-25T18:36:42.003Z,2.50
2018-02-25T18:39:08.608Z,2.87
2018-02-25T18:41:35.197Z,2.40
2018-02-25T18:44:01.788Z,2.90
2018-02-25T18:46:28.385Z,2.53
2018-02-25T18:48:55.055Z,3.17
2018-02-25T18:51:21.652Z,2.63
2018-02-25T18:53:49.136Z,3.67
2018-02-25T18:56:15.733Z,2.53
2018-02-25T18:58:42.320Z,2.50
2018-02-25T19:01:08.912Z,3.40
2018-02-25T19:03:35.511Z,2.70
2018-02-25T19:06:02.103Z,2.57
2018-02-25T19:08:28.687Z,2.53
2018-02-25T19:10:55.285Z,2.60
2018-02-25T19:13:21.885Z,2.93
2018-02-25T19:15:48.502Z,2.50
2018-02-25T19:18:15.091Z,2.17
2018-02-25T19:20:41.680Z,2.23
2018-02-25T19:23:08.292Z,2.47
2018-02-25T19:25:34.912Z,2.60
2018-02-25T19:28:01.525Z,3.00
2018-02-25T19:30:28.122Z,2.50
2018-02-25T19:32:54.712Z,3.10
2018-02-25T19:35:21.319Z,2.70
2018-02-25T19:37:53.620Z,2.73
2018-02-25T19:40:25.870Z,3.30
2018-02-25T19:42:52.460Z,2.70
2018-02-25T19:45:19.064Z,2.90
2018-02-25T19:47:45.658Z,2.67
2018-02-25T19:50:12.248Z,2.73
2018-02-25T19:52:38.884Z,3.13
2018-02-25T19:55:05.480Z,2.80
2018-02-25T19:57:32.094Z,2.93
2018-02-25T19:59:58.684Z,3.30
2018-02-25T20:02:25.277Z,2.97
2018-02-25T20:04:51.884Z,3.50
2018-02-25T20:07:18.481Z,3.03
2018-02-25T20:09:45.425Z,3.70
2018-02-25T20:12:12.018Z,4.07
2018-02-25T20:14:38.616Z,2.77
2018-02-25T20:17:05.216Z,3.00
2018-02-25T20:19:31.804Z,3.30
2018-02-25T20:21:58.407Z,3.40
2018-02-25T20:24:24.997Z,3.10
2018-02-25T20:26:51.611Z,2.70
2018-02-25T20:29:18.204Z,3.10
2018-02-25T20:31:44.809Z,3.17
2018-02-25T20:34:11.409Z,3.00
2018-02-25T20:36:37.995Z,2.90
2018-02-25T20:39:04.592Z,2.73
2018-02-25T20:41:31.318Z,2.83
2018-02-25T20:43:57.900Z,2.57
2018-02-25T20:46:24.504Z,2.77
2018-02-25T20:48:51.098Z,2.30
2018-02-25T20:51:17.684Z,2.67
2018-02-25T20:53:44.292Z,3.40
2018-02-25T20:56:10.886Z,2.80
2018-02-25T20:58:37.496Z,2.57
2018-02-25T21:01:04.093Z,2.43
2018-02-25T21:03:30.686Z,2.90
2018-02-25T21:05:57.280Z,2.70
2018-02-25T21:08:23.872Z,2.93
2018-02-25T21:10:50.492Z,2.93
2018-02-25T21:13:17.071Z,2.60
2018-02-25T21:15:43.682Z,2.70
2018-02-25T21:18:10.338Z,2.90
2018-02-25T21:20:36.901Z,2.80
2018-02-25T21:23:03.508Z,2.83
2018-02-25T21:25:30.103Z,2.23
2018-02-25T21:27:56.696Z,2.80
2018-02-25T21:30:23.628Z,3.00
2018-02-25T21:32:50.258Z,2.70
2018-02-25T21:35:16.826Z,2.80
2018-02-25T21:37:43.416Z,2.70
2018-02-25T21:40:10.016Z,2.50
2018-02-25T21:42:36.617Z,3.10
2018-02-25T21:45:03.227Z,2.73
2018-02-25T21:47:29.811Z,2.70
2018-02-25T21:49:56.425Z,2.97
2018-02-25T21:52:23.012Z,2.90
2018-02-25T21:54:55.253Z,2.93
2018-02-25T21:57:27.790Z,3.23
2018-02-25T22:00:00.208Z,3.13
2018-02-25T22:02:32.630Z,2.80
2018-02-25T22:04:59.253Z,2.90
2018-02-25T22:07:25.864Z,2.70
2018-02-25T22:09:52.455Z,2.97
2018-02-25T22:12:19.052Z,3.17
2018-02-25T22:14:45.651Z,2.90
2018-02-25T22:17:12.544Z,2.63
2018-02-25T22:19:39.137Z,2.87
2018-02-25T22:22:05.723Z,3.43
2018-02-25T22:24:32.341Z,3.20
2018-02-25T22:26:58.940Z,3.00
2018-02-25T22:29:25.532Z,3.00
2018-02-25T22:31:52.131Z,3.23
2018-02-25T22:34:18.724Z,3.10
2018-02-25T22:36:45.324Z,5.03
2018-02-25T22:39:11.970Z,3.30
2018-02-25T22:41:38.558Z,2.87
2018-02-25T22:44:05.144Z,3.20
2018-02-25T22:46:31.748Z,3.17
2018-02-25T22:48:58.347Z,2.60
2018-02-25T22:51:24.952Z,3.03
2018-02-25T22:53:51.580Z,2.80
2018-02-25T22:56:18.173Z,3.03
2018-02-25T22:58:44.760Z,3.60
2018-02-25T23:01:11.364Z,3.23
2018-02-25T23:03:37.952Z,3.30
2018-02-25T23:06:08.520Z,3.50
2018-02-25T23:08:35.132Z,3.67
2018-02-25T23:11:01.724Z,3.50
2018-02-25T23:13:28.315Z,3.60
2018-02-25T23:15:54.924Z,3.63
2018-02-25T23:18:21.521Z,3.70
2018-02-25T23:20:48.116Z,3.23
2018-02-25T23:23:14.738Z,3.87
2018-02-25T23:25:41.329Z,3.60
2018-02-25T23:28:07.920Z,3.50
2018-02-25T23:30:34.544Z,3.37
2018-02-25T23:33:01.142Z,3.30
2018-02-25T23:35:27.728Z,3.90
2018-02-25T23:37:54.334Z,4.17
2018-02-25T23:40:20.936Z,3.73
2018-02-25T23:42:47.528Z,3.80
2018-02-25T23:45:14.150Z,4.07
2018-02-25T23:47:40.732Z,3.77
2018-02-25T23:50:07.321Z,3.77
2018-02-25T23:52:33.927Z,4.10
2018-02-25T23:55:00.517Z,4.00
2018-02-25T23:57:27.111Z,4.10
2018-02-25T23:59:53.733Z,3.80
